US-0144 weather

Twin Falls Ranch Airport
Tarpley, Texas, United States

Public forecast

Using degrees Fahrenheit for public forecast. Weather courtesy of forecast.io.

Closest aviation weather report (METAR) to Twin Falls Ranch Airport

Closest report is South Texas Regional Airport at Hondo, 20.3 nm (37.6 km) SSE. Retrieved 2019/10/21 09:29 UTC (19 minutes ago):

KHDO 210929Z AUTO 35011G18KT 10SM -RA SCT024 OVC035 19/16 A2979 RMK AO2 PK WND 01029/0854 LTG DSNT NW RAB16 P0000 T01940161

Closest aviation forecast (TAF) to Twin Falls Ranch Airport

Closest forecast is Lackland Air Force Base, 41.0 nm (75.9 km) ESE. Retrieved 2019/10/21 10:03 UTC (0 seconds ago):

TAF KSKF 211000Z 2110/2216 34010KT 9999 VCTS SCT008 BKN020CB QNH2972INS TEMPO 2110/2112 03015G20KT 8000 -TSRA OVC015CB BECMG 2111/2112 03008KT 9999 VCSH SCT045 SCT100 QNH2968INS BECMG 2114/2115 04010KT 9999 NSW SCT050 SCT100 QNH2965INS BECMG 2123/2124 VRB06KT 9999 SKC QNH2980INS TX25/2120Z TN19/2111Z